C6564 KVQQ-KVQQ

Flight info

Callsign C6564
Flight time 0h 29m
Altitude 5000
Route VFR
Aircraft AS65/L-V/N

Departure

Time 2026-04-11 21:36
Airport Cecil Airport (KVQQ)

Arrival

Time 2026-04-11 22:05
Airport Cecil Airport (KVQQ)
Time Latitude Longitude Altitude Speed Heading
2026-04-11 21:21 30.21949 -81.88669 80 ft 0 kts 176°
2026-04-11 21:24 30.21947 -81.88669 82 ft 0 kts 175°
2026-04-11 21:24 30.21945 -81.88669 82 ft 0 kts 174°
2026-04-11 21:24 30.21946 -81.88669 82 ft 0 kts 174°
2026-04-11 21:25 30.21945 -81.88669 82 ft 0 kts 174°
2026-04-11 21:25 30.21914 -81.88674 153 ft 16 kts 174°
2026-04-11 21:26 30.21621 -81.88540 118 ft 79 kts 116°
2026-04-11 21:26 30.21575 -81.87783 140 ft 106 kts 86°
2026-04-11 21:26 30.21462 -81.86893 211 ft 108 kts 104°
2026-04-11 21:26 30.21295 -81.86065 175 ft 108 kts 101°
2026-04-11 21:27 30.21118 -81.85215 174 ft 112 kts 102°
2026-04-11 21:27 30.20935 -81.84340 189 ft 110 kts 101°
2026-04-11 21:27 30.20750 -81.83467 247 ft 114 kts 102°
2026-04-11 21:27 30.20583 -81.82563 400 ft 114 kts 104°
2026-04-11 21:28 30.20416 -81.81659 462 ft 123 kts 109°
2026-04-11 21:28 30.19834 -81.80821 497 ft 143 kts 136°
2026-04-11 21:28 30.19035 -81.80070 512 ft 155 kts 139°
2026-04-11 21:28 30.18140 -81.79297 455 ft 166 kts 140°
2026-04-11 21:29 30.17215 -81.78487 339 ft 162 kts 140°
2026-04-11 21:29 30.16351 -81.77697 395 ft 158 kts 140°
2026-04-11 21:29 30.15472 -81.76901 429 ft 166 kts 140°
2026-04-11 21:29 30.14557 -81.76104 466 ft 159 kts 140°
2026-04-11 21:30 30.13661 -81.75333 473 ft 160 kts 141°
2026-04-11 21:30 30.12799 -81.74548 530 ft 160 kts 140°
2026-04-11 21:30 30.11908 -81.73737 552 ft 161 kts 140°
2026-04-11 21:30 30.11014 -81.72948 544 ft 163 kts 141°
2026-04-11 21:31 30.10110 -81.72154 538 ft 165 kts 141°
2026-04-11 21:31 30.09193 -81.71333 539 ft 168 kts 141°
2026-04-11 21:31 30.08379 -81.70394 563 ft 159 kts 121°
2026-04-11 21:32 30.08134 -81.68378 540 ft 120 kts 69°
2026-04-11 21:32 30.08661 -81.67595 543 ft 126 kts 51°
2026-04-11 21:32 30.09256 -81.66837 539 ft 130 kts 55°
2026-04-11 21:32 30.10010 -81.66279 548 ft 127 kts 22°
2026-04-11 21:33 30.10903 -81.66270 531 ft 137 kts 356°
2026-04-11 21:33 30.11716 -81.66818 546 ft 138 kts 321°
2026-04-11 21:33 30.12206 -81.67798 558 ft 144 kts 290°
2026-04-11 21:33 30.12240 -81.68926 559 ft 134 kts 255°
2026-04-11 21:34 30.11861 -81.69784 555 ft 112 kts 226°
2026-04-11 21:34 30.11240 -81.70167 545 ft 94 kts 185°
2026-04-11 21:34 30.10672 -81.70044 548 ft 76 kts 148°
2026-04-11 21:34 30.10342 -81.69636 547 ft 66 kts 123°
2026-04-11 21:35 30.10166 -81.69160 541 ft 63 kts 110°
2026-04-11 21:35 30.10061 -81.68667 542 ft 65 kts 108°
2026-04-11 21:35 30.09949 -81.68167 544 ft 63 kts 111°
2026-04-11 21:35 30.09827 -81.67683 542 ft 64 kts 103°
2026-04-11 21:36 30.09777 -81.67178 708 ft 66 kts 86°
2026-04-11 21:36 30.09579 -81.66609 583 ft 104 kts 136°
2026-04-11 21:36 30.08805 -81.66561 485 ft 123 kts 203°
2026-04-11 21:36 30.08351 -81.67349 424 ft 124 kts 268°
2026-04-11 21:37 30.08354 -81.68329 305 ft 118 kts 241°
2026-04-11 21:37 30.07660 -81.68643 146 ft 115 kts 151°
2026-04-11 21:37 30.07505 -81.68003 178 ft 56 kts 66°
2026-04-11 21:37 30.07621 -81.67755 110 ft 22 kts 86°
2026-04-11 21:38 30.07540 -81.67637 87 ft 23 kts 141°
2026-04-11 21:38 30.07376 -81.67719 110 ft 39 kts 136°
2026-04-11 21:38 30.07041 -81.67791 118 ft 62 kts 134°
2026-04-11 21:38 30.06759 -81.68067 403 ft 70 kts 290°
2026-04-11 21:39 30.07161 -81.68353 328 ft 77 kts
2026-04-11 21:39 30.07622 -81.68155 373 ft 70 kts 51°
2026-04-11 21:39 30.07750 -81.67621 404 ft 75 kts 100°
2026-04-11 21:39 30.07352 -81.67250 457 ft 90 kts 175°
2026-04-11 21:40 30.06853 -81.67706 350 ft 103 kts 257°
2026-04-11 21:40 30.07070 -81.68432 261 ft 100 kts 334°
2026-04-11 21:40 30.07716 -81.68412 423 ft 100 kts 38°
2026-04-11 21:40 30.07957 -81.67685 703 ft 105 kts 99°
2026-04-11 21:41 30.07495 -81.67145 1003 ft 96 kts 164°
2026-04-11 21:41 30.06948 -81.67468 1058 ft 95 kts 243°
2026-04-11 21:41 30.07053 -81.68110 1045 ft 76 kts 320°
2026-04-11 21:41 30.07431 -81.68346 1011 ft 52 kts
2026-04-11 21:42 30.07678 -81.68205 981 ft 30 kts 59°
2026-04-11 21:42 30.07737 -81.68015 893 ft 28 kts 75°
2026-04-11 21:42 30.07749 -81.67712 754 ft 55 kts 98°
2026-04-11 21:42 30.07294 -81.67245 434 ft 125 kts 161°
2026-04-11 21:43 30.06476 -81.67684 218 ft 152 kts 242°
2026-04-11 21:43 30.05926 -81.68736 138 ft 153 kts 236°
2026-04-11 21:43 30.05123 -81.69343 178 ft 131 kts 184°
2026-04-11 21:43 30.04288 -81.69332 241 ft 109 kts 179°
2026-04-11 21:44 30.03597 -81.69353 224 ft 91 kts 177°
2026-04-11 21:44 30.03015 -81.69396 221 ft 77 kts 178°
2026-04-11 21:44 30.02543 -81.69172 216 ft 73 kts 141°
2026-04-11 21:44 30.02149 -81.68851 215 ft 67 kts 140°
2026-04-11 21:45 30.01759 -81.68558 218 ft 65 kts 139°
2026-04-11 21:45 30.01376 -81.68281 209 ft 66 kts 139°
2026-04-11 21:45 30.01000 -81.67979 212 ft 67 kts 140°
2026-04-11 21:45 30.00630 -81.67635 213 ft 69 kts 126°
2026-04-11 21:46 30.00458 -81.67151 212 ft 65 kts 95°
2026-04-11 21:46 30.00579 -81.66641 214 ft 70 kts 65°
2026-04-11 21:46 30.00930 -81.66298 214 ft 66 kts 41°
2026-04-11 21:46 30.01357 -81.66071 215 ft 67 kts 34°
2026-04-11 21:47 30.01793 -81.65888 210 ft 68 kts 31°
2026-04-11 21:47 30.02668 -81.65723 213 ft 67 kts
2026-04-11 21:47 30.03098 -81.65940 215 ft 70 kts 328°
2026-04-11 21:48 30.03348 -81.66446 214 ft 77 kts 288°
2026-04-11 21:48 30.03286 -81.67043 214 ft 72 kts 243°
2026-04-11 21:48 30.02948 -81.67437 212 ft 68 kts 199°
2026-04-11 21:48 30.02499 -81.67508 212 ft 62 kts 159°
2026-04-11 21:49 30.02147 -81.67289 215 ft 56 kts 129°
2026-04-11 21:49 30.01917 -81.66929 216 ft 55 kts 121°
2026-04-11 21:49 30.01679 -81.66593 212 ft 55 kts 125°
2026-04-11 21:49 30.01405 -81.66253 215 ft 57 kts 127°
2026-04-11 21:50 30.01129 -81.65950 216 ft 54 kts 129°
2026-04-11 21:50 30.00848 -81.65646 208 ft 56 kts 128°
2026-04-11 21:50 30.00546 -81.65315 211 ft 62 kts 129°
2026-04-11 21:50 30.00228 -81.64982 217 ft 61 kts 130°
2026-04-11 21:51 29.99927 -81.64681 216 ft 55 kts 127°
2026-04-11 21:51 29.99627 -81.64404 214 ft 60 kts 139°
2026-04-11 21:51 29.99181 -81.64359 214 ft 71 kts 187°
2026-04-11 21:51 29.98801 -81.64742 216 ft 78 kts 242°
2026-04-11 21:52 29.98781 -81.65340 215 ft 74 kts 296°
2026-04-11 21:52 29.99132 -81.65735 217 ft 70 kts 344°
2026-04-11 21:52 29.99590 -81.65782 217 ft 62 kts 16°
2026-04-11 21:52 30.00013 -81.65724 209 ft 63 kts 18°
2026-04-11 21:53 30.00453 -81.65680 212 ft 62 kts 19°
2026-04-11 21:53 30.00886 -81.65674 207 ft 63 kts 13°
2026-04-11 21:53 30.01297 -81.65594 209 ft 57 kts 39°
2026-04-11 21:53 30.01543 -81.65295 212 ft 52 kts 66°
2026-04-11 21:54 30.01564 -81.64856 214 ft 58 kts 105°
2026-04-11 21:54 30.01288 -81.64515 216 ft 62 kts 143°
2026-04-11 21:54 30.00860 -81.64399 214 ft 64 kts 158°
2026-04-11 21:54 30.00414 -81.64358 215 ft 65 kts 166°
2026-04-11 21:55 29.99953 -81.64320 213 ft 68 kts 169°
2026-04-11 21:55 29.99452 -81.64275 213 ft 77 kts 172°
2026-04-11 21:55 29.98953 -81.64542 213 ft 86 kts 223°
2026-04-11 21:55 29.98754 -81.65210 218 ft 91 kts 276°
2026-04-11 21:56 29.99026 -81.65802 215 ft 83 kts 329°
2026-04-11 21:56 29.99547 -81.65976 217 ft 73 kts 13°
2026-04-11 21:56 30.00029 -81.65892 209 ft 70 kts 25°
2026-04-11 21:56 30.00573 -81.65951 198 ft 96 kts 355°
2026-04-11 21:57 30.01252 -81.66471 194 ft 137 kts 319°
2026-04-11 21:57 30.01877 -81.67288 232 ft 128 kts 316°
2026-04-11 21:57 30.02384 -81.68003 277 ft 135 kts 314°
2026-04-11 21:57 30.03038 -81.68930 329 ft 163 kts 314°
2026-04-11 21:58 30.03791 -81.70006 359 ft 179 kts 314°
2026-04-11 21:58 30.04594 -81.71141 351 ft 184 kts 315°
2026-04-11 21:58 30.05137 -81.71912 334 ft 183 kts 314°
2026-04-11 21:58 30.06200 -81.73390 466 ft 176 kts 314°
2026-04-11 21:59 30.06743 -81.74117 517 ft 179 kts 315°
2026-04-11 21:59 30.07829 -81.75574 636 ft 177 kts 314°
2026-04-11 21:59 30.08380 -81.76284 647 ft 178 kts 315°
2026-04-11 21:59 30.09478 -81.77728 673 ft 178 kts 314°
2026-04-11 22:00 30.10013 -81.78440 674 ft 172 kts 315°
2026-04-11 22:00 30.10256 -81.78758 669 ft 172 kts 315°
2026-04-11 22:00 30.10386 -81.78928 667 ft 173 kts 316°
2026-04-11 22:00 30.10642 -81.79269 655 ft 177 kts 315°
2026-04-11 22:01 30.11443 -81.80345 676 ft 175 kts 314°
2026-04-11 22:01 30.11556 -81.80492 671 ft 176 kts 314°
2026-04-11 22:01 30.11784 -81.80789 635 ft 181 kts 316°
2026-04-11 22:02 30.11964 -81.81027 614 ft 185 kts 315°
2026-04-11 22:02 30.12346 -81.81535 618 ft 180 kts 314°
2026-04-11 22:02 30.13161 -81.82578 630 ft 176 kts 316°
2026-04-11 22:03 30.13967 -81.83621 638 ft 175 kts 314°
2026-04-11 22:03 30.14965 -81.84444 660 ft 177 kts 340°
2026-04-11 22:03 30.16066 -81.84999 684 ft 170 kts 343°
2026-04-11 22:03 30.17084 -81.85478 710 ft 145 kts 345°
2026-04-11 22:04 30.17999 -81.85898 670 ft 142 kts 344°
2026-04-11 22:04 30.18918 -81.86287 665 ft 143 kts 345°
2026-04-11 22:04 30.19843 -81.86602 394 ft 132 kts 351°
2026-04-11 22:04 30.20598 -81.87162 491 ft 134 kts 297°
2026-04-11 22:05 30.20977 -81.87970 539 ft 94 kts 321°
2026-04-11 22:05 30.21409 -81.88465 392 ft 87 kts 332°
2026-04-11 22:05 30.21781 -81.88712 304 ft 28 kts
2026-04-11 22:05 30.21921 -81.88722 207 ft 18 kts
2026-04-11 22:06 30.22015 -81.88760 109 ft 7 kts
2026-04-11 22:06 30.22030 -81.88757 90 ft 2 kts
2026-04-11 22:06 30.22026 -81.88755 87 ft 3 kts
2026-04-11 22:06 30.22018 -81.88757 79 ft 0 kts